createdAt,value
2023-05-10T00:00:16.284Z,25.70
2023-05-10T00:00:46.818Z,25.76
2023-05-10T00:01:17.325Z,25.83
2023-05-10T00:01:47.796Z,25.84
2023-05-10T00:02:18.251Z,25.83
2023-05-10T00:02:48.759Z,25.82
2023-05-10T00:03:19.312Z,25.81
2023-05-10T00:03:49.813Z,25.84
2023-05-10T00:04:20.355Z,25.81
2023-05-10T00:04:50.739Z,25.77
2023-05-10T00:05:21.170Z,25.76
2023-05-10T00:05:51.583Z,25.74
2023-05-10T00:06:22.004Z,25.75
2023-05-10T00:06:52.440Z,25.79
2023-05-10T00:07:22.871Z,25.83
2023-05-10T00:07:53.301Z,25.89
2023-05-10T00:08:23.719Z,25.88
2023-05-10T00:08:54.144Z,25.85
2023-05-10T00:09:24.583Z,25.82
2023-05-10T00:09:54.991Z,25.81
2023-05-10T00:10:25.405Z,25.83
2023-05-10T00:10:55.828Z,25.84
2023-05-10T00:11:26.262Z,25.80
2023-05-10T00:11:56.702Z,25.79
2023-05-10T00:12:27.129Z,25.77
2023-05-10T00:12:57.574Z,25.75
2023-05-10T00:13:28.106Z,25.72
2023-05-10T00:13:58.572Z,25.69
2023-05-10T00:14:28.988Z,25.73
2023-05-10T00:14:59.410Z,25.75
2023-05-10T00:15:29.835Z,25.73
2023-05-10T00:16:00.326Z,25.72
2023-05-10T00:16:30.786Z,25.71
2023-05-10T00:17:01.295Z,25.67
2023-05-10T00:17:31.723Z,25.66
2023-05-10T00:18:02.143Z,25.69
2023-05-10T00:18:32.550Z,25.70
2023-05-10T00:19:02.977Z,25.69
2023-05-10T00:19:33.401Z,25.69
2023-05-10T00:20:03.823Z,25.69
2023-05-10T00:20:34.237Z,25.67
2023-05-10T00:21:04.679Z,25.67
2023-05-10T00:21:35.121Z,25.69
2023-05-10T00:22:05.530Z,25.72
2023-05-10T00:22:35.950Z,25.72
2023-05-10T00:23:06.386Z,25.75
2023-05-10T00:23:36.807Z,25.76
2023-05-10T00:24:07.233Z,25.74
2023-05-10T00:24:37.688Z,25.70
2023-05-10T00:25:08.088Z,25.70
2023-05-10T00:25:38.507Z,25.71
2023-05-10T00:26:08.953Z,25.75
2023-05-10T00:26:39.376Z,25.74
2023-05-10T00:27:09.798Z,25.75
2023-05-10T00:27:40.226Z,25.76
2023-05-10T00:28:10.651Z,25.75
2023-05-10T00:28:41.072Z,25.73
2023-05-10T00:29:11.506Z,25.70
2023-05-10T00:29:41.922Z,25.69
2023-05-10T00:30:12.357Z,25.69
2023-05-10T00:30:42.769Z,25.70
2023-05-10T00:31:13.210Z,25.72
2023-05-10T00:31:43.709Z,25.71
2023-05-10T00:32:14.137Z,25.74
2023-05-10T00:32:44.644Z,25.80
2023-05-10T00:33:15.044Z,25.78
2023-05-10T00:33:45.470Z,25.74
2023-05-10T00:34:15.899Z,25.70
2023-05-10T00:34:46.332Z,25.67
2023-05-10T00:35:16.755Z,25.66
2023-05-10T00:35:47.186Z,25.68
2023-05-10T00:36:17.622Z,25.67
2023-05-10T00:36:48.058Z,25.69
2023-05-10T00:37:18.477Z,25.69
2023-05-10T00:37:48.903Z,25.70
2023-05-10T00:38:19.335Z,25.72
2023-05-10T00:38:49.748Z,25.70
2023-05-10T00:39:20.168Z,25.70
2023-05-10T00:39:50.621Z,25.73
2023-05-10T00:40:21.027Z,25.72
2023-05-10T00:40:51.471Z,25.71
2023-05-10T00:41:21.892Z,25.69
2023-05-10T00:41:52.327Z,25.70
2023-05-10T00:42:22.746Z,25.66
2023-05-10T00:42:53.171Z,25.64
2023-05-10T00:43:23.588Z,25.66
2023-05-10T00:43:54.010Z,25.63
2023-05-10T00:44:24.429Z,25.64
2023-05-10T00:44:54.861Z,25.67
2023-05-10T00:45:25.300Z,25.70
2023-05-10T00:45:55.763Z,25.70
2023-05-10T00:46:26.178Z,25.68
2023-05-10T00:46:56.626Z,25.66
2023-05-10T00:47:27.090Z,25.64
2023-05-10T00:47:57.536Z,25.63
2023-05-10T00:48:27.922Z,25.64
2023-05-10T00:48:58.336Z,25.63
2023-05-10T00:49:28.756Z,25.64
2023-05-10T00:49:59.205Z,25.70
2023-05-10T00:50:29.637Z,25.73
2023-05-10T00:51:00.076Z,25.72
2023-05-10T00:51:30.496Z,25.71
2023-05-10T00:52:00.916Z,25.71
2023-05-10T00:52:31.339Z,25.70
2023-05-10T00:53:01.775Z,25.68
2023-05-10T00:53:32.208Z,25.69
2023-05-10T00:54:02.647Z,25.70
2023-05-10T00:54:33.054Z,25.68
2023-05-10T00:55:03.507Z,25.68
2023-05-10T00:55:33.909Z,25.70
2023-05-10T00:56:04.334Z,25.67
2023-05-10T00:56:34.765Z,25.66
2023-05-10T00:57:05.184Z,25.70
2023-05-10T00:57:35.593Z,25.74
2023-05-10T00:58:06.018Z,25.74
2023-05-10T00:58:36.453Z,25.71
2023-05-10T00:59:06.878Z,25.70
2023-05-10T00:59:37.305Z,25.69
2023-05-10T01:00:07.752Z,25.70
2023-05-10T01:00:38.159Z,25.72
2023-05-10T01:01:08.635Z,25.75
2023-05-10T01:01:39.073Z,25.74
2023-05-10T01:02:09.491Z,25.73
2023-05-10T01:02:39.950Z,25.71
2023-05-10T01:03:10.440Z,25.70
2023-05-10T01:03:40.944Z,25.70
2023-05-10T01:04:11.344Z,25.71
2023-05-10T01:04:41.833Z,25.71
2023-05-10T01:05:12.230Z,25.71
2023-05-10T01:05:42.652Z,25.69
2023-05-10T01:06:13.068Z,25.69
2023-05-10T01:06:43.491Z,25.69
2023-05-10T01:07:13.910Z,25.70
2023-05-10T01:07:44.348Z,25.69
2023-05-10T01:08:14.757Z,25.66
2023-05-10T01:08:45.191Z,25.66
2023-05-10T01:09:15.624Z,25.70
2023-05-10T01:09:46.053Z,25.69
2023-05-10T01:10:16.870Z,25.69
2023-05-10T01:10:47.445Z,25.68
2023-05-10T01:11:17.865Z,25.70
2023-05-10T01:11:48.290Z,25.71
2023-05-10T01:12:18.744Z,25.69
2023-05-10T01:12:49.200Z,25.69
2023-05-10T01:13:19.621Z,25.67
2023-05-10T01:13:50.011Z,25.70
2023-05-10T01:14:20.446Z,25.70
2023-05-10T01:14:50.889Z,25.68
2023-05-10T01:15:21.305Z,25.65
2023-05-10T01:15:51.777Z,25.66
2023-05-10T01:16:22.236Z,25.67
2023-05-10T01:16:52.639Z,25.66
2023-05-10T01:17:23.110Z,25.66
2023-05-10T01:17:53.510Z,25.65
2023-05-10T01:18:23.908Z,25.64
2023-05-10T01:18:54.340Z,25.63
2023-05-10T01:19:24.773Z,25.61
2023-05-10T01:19:55.192Z,25.59
2023-05-10T01:20:25.632Z,25.61
2023-05-10T01:20:56.042Z,25.60
2023-05-10T01:21:26.463Z,25.61
2023-05-10T01:21:56.886Z,25.64
2023-05-10T01:22:27.321Z,25.63
2023-05-10T01:22:57.729Z,25.60
2023-05-10T01:23:28.152Z,25.63
2023-05-10T01:23:58.597Z,25.68
2023-05-10T01:24:29.041Z,25.71
2023-05-10T01:24:59.446Z,25.76
2023-05-10T01:25:29.890Z,25.75
2023-05-10T01:26:00.287Z,25.72
2023-05-10T01:26:30.712Z,25.71
2023-05-10T01:27:01.159Z,25.70
2023-05-10T01:27:31.582Z,25.67
2023-05-10T01:28:01.997Z,25.68
2023-05-10T01:28:32.435Z,25.67
2023-05-10T01:29:02.864Z,25.67
2023-05-10T01:29:33.293Z,25.67
2023-05-10T01:30:14.147Z,25.66
2023-05-10T01:30:39.038Z,25.67
2023-05-10T01:31:09.501Z,25.68
2023-05-10T01:31:39.921Z,25.65
2023-05-10T01:32:10.320Z,25.64
2023-05-10T01:32:40.791Z,25.65
2023-05-10T01:33:11.186Z,25.66
2023-05-10T01:33:41.611Z,25.63
2023-05-10T01:34:12.032Z,25.66
2023-05-10T01:34:42.461Z,25.67
2023-05-10T01:35:12.886Z,25.68
2023-05-10T01:35:43.318Z,25.67
2023-05-10T01:36:13.744Z,25.66
2023-05-10T01:36:44.165Z,25.65
2023-05-10T01:37:14.581Z,25.65
2023-05-10T01:37:45.002Z,25.65
2023-05-10T01:38:15.440Z,25.67
2023-05-10T01:38:45.869Z,25.67
2023-05-10T01:39:16.282Z,25.67
2023-05-10T01:39:46.716Z,25.66
2023-05-10T01:40:17.300Z,25.65
2023-05-10T01:40:47.800Z,25.66
2023-05-10T01:41:18.223Z,25.67
2023-05-10T01:41:48.629Z,25.66
2023-05-10T01:42:19.073Z,25.67
2023-05-10T01:42:49.478Z,25.67
2023-05-10T01:43:19.911Z,25.66
2023-05-10T01:43:50.349Z,25.63
2023-05-10T01:44:20.764Z,25.61
2023-05-10T01:44:51.195Z,25.60
2023-05-10T01:45:21.617Z,25.65
2023-05-10T01:45:52.036Z,25.67
2023-05-10T01:46:22.481Z,25.66
2023-05-10T01:46:52.935Z,25.66
2023-05-10T01:47:23.307Z,25.68
2023-05-10T01:47:53.784Z,25.67
2023-05-10T01:48:24.181Z,25.65
2023-05-10T01:48:54.610Z,25.65
2023-05-10T01:49:25.027Z,25.63
2023-05-10T01:49:55.457Z,25.60
2023-05-10T01:50:25.878Z,25.63
2023-05-10T01:50:56.292Z,25.67
2023-05-10T01:51:26.720Z,25.72
2023-05-10T01:51:57.135Z,25.71
2023-05-10T01:52:27.579Z,25.70
2023-05-10T01:52:58.012Z,25.71
2023-05-10T01:53:28.434Z,25.70
2023-05-10T01:53:58.852Z,25.69
2023-05-10T01:54:29.273Z,25.71
2023-05-10T01:54:59.697Z,25.71
2023-05-10T01:55:30.116Z,25.68
2023-05-10T01:56:00.566Z,25.66
2023-05-10T01:56:30.987Z,25.70
2023-05-10T01:57:01.408Z,25.72
2023-05-10T01:57:31.854Z,25.71
2023-05-10T01:58:02.274Z,25.70
2023-05-10T01:58:32.693Z,25.66
2023-05-10T01:59:03.117Z,25.66
2023-05-10T01:59:33.563Z,25.70
2023-05-10T02:00:03.982Z,25.69
2023-05-10T02:00:34.456Z,25.67
2023-05-10T02:01:04.860Z,25.65
2023-05-10T02:01:35.263Z,25.62
2023-05-10T02:02:05.698Z,25.63
2023-05-10T02:02:36.190Z,25.66
2023-05-10T02:03:06.745Z,25.67
2023-05-10T02:03:37.179Z,25.68
2023-05-10T02:04:07.664Z,25.67
2023-05-10T02:04:38.115Z,25.65
2023-05-10T02:05:08.554Z,25.67
2023-05-10T02:05:38.963Z,25.65
2023-05-10T02:06:09.446Z,25.63
2023-05-10T02:06:39.892Z,25.61
2023-05-10T02:07:10.306Z,25.64
2023-05-10T02:07:40.745Z,25.65
2023-05-10T02:08:11.157Z,25.65
2023-05-10T02:08:41.579Z,25.64
2023-05-10T02:09:12.012Z,25.63
2023-05-10T02:09:42.440Z,25.61
2023-05-10T02:10:12.924Z,25.68
2023-05-10T02:10:43.385Z,25.70
2023-05-10T02:11:13.861Z,25.68
2023-05-10T02:11:44.241Z,25.63
2023-05-10T02:12:14.672Z,25.61
2023-05-10T02:12:45.147Z,25.59
2023-05-10T02:13:15.569Z,25.60
2023-05-10T02:13:45.954Z,25.61
2023-05-10T02:14:16.439Z,25.61
2023-05-10T02:14:46.807Z,25.64
2023-05-10T02:15:17.233Z,25.61
2023-05-10T02:15:47.648Z,25.59
2023-05-10T02:16:18.120Z,25.61
2023-05-10T02:16:48.557Z,25.60
2023-05-10T02:17:18.983Z,25.64
2023-05-10T02:17:49.453Z,25.65
2023-05-10T02:18:19.880Z,25.64
2023-05-10T02:18:50.280Z,25.61
2023-05-10T02:19:20.699Z,25.66
2023-05-10T02:19:51.127Z,25.65
2023-05-10T02:20:21.580Z,25.61
2023-05-10T02:20:51.989Z,25.58
2023-05-10T02:21:22.432Z,25.59
2023-05-10T02:21:52.860Z,25.60
2023-05-10T02:22:23.278Z,25.61
2023-05-10T02:22:53.726Z,25.61
2023-05-10T02:23:24.142Z,25.61
2023-05-10T02:23:54.562Z,25.60
2023-05-10T02:24:24.982Z,25.60
2023-05-10T02:24:55.404Z,25.57
2023-05-10T02:25:25.856Z,25.57
2023-05-10T02:25:56.270Z,25.61
2023-05-10T02:26:26.724Z,25.59
2023-05-10T02:26:57.125Z,25.59
2023-05-10T02:27:27.545Z,25.59
2023-05-10T02:27:58.158Z,25.59
2023-05-10T02:28:28.585Z,25.60
2023-05-10T02:28:59.005Z,25.61
2023-05-10T02:29:29.429Z,25.63
2023-05-10T02:29:59.855Z,25.62
2023-05-10T02:30:30.280Z,25.65
2023-05-10T02:31:00.725Z,25.65
2023-05-10T02:31:31.492Z,25.61
2023-05-10T02:32:01.961Z,25.59
2023-05-10T02:32:32.414Z,25.62
2023-05-10T02:33:02.858Z,25.64
2023-05-10T02:33:33.243Z,25.65
2023-05-10T02:34:03.709Z,25.66
2023-05-10T02:34:34.131Z,25.67
2023-05-10T02:35:04.850Z,25.65
2023-05-10T02:35:35.264Z,25.63
2023-05-10T02:36:05.699Z,25.65
2023-05-10T02:36:36.115Z,25.64
2023-05-10T02:37:06.537Z,25.59
2023-05-10T02:37:36.963Z,25.61
2023-05-10T02:38:07.392Z,25.64
2023-05-10T02:38:37.855Z,25.63
2023-05-10T02:39:08.270Z,25.62
2023-05-10T02:39:38.679Z,25.65
2023-05-10T02:40:09.107Z,25.66
2023-05-10T02:40:39.539Z,25.68
2023-05-10T02:41:09.996Z,25.67
2023-05-10T02:41:40.430Z,25.64
2023-05-10T02:42:10.830Z,25.59
2023-05-10T02:42:41.255Z,25.60
2023-05-10T02:43:11.687Z,25.59
2023-05-10T02:43:42.113Z,25.58
2023-05-10T02:44:12.539Z,25.60
2023-05-10T02:44:42.956Z,25.62
2023-05-10T02:45:13.380Z,25.64
2023-05-10T02:45:43.862Z,25.61
2023-05-10T02:46:14.283Z,25.59
2023-05-10T02:46:44.681Z,25.60
2023-05-10T02:47:15.103Z,25.62
2023-05-10T02:47:45.598Z,25.63
2023-05-10T02:48:16.057Z,25.62
2023-05-10T02:48:46.474Z,25.60
2023-05-10T02:49:16.896Z,25.58
2023-05-10T02:49:47.313Z,25.59
2023-05-10T02:50:18.086Z,25.57
2023-05-10T02:50:48.718Z,25.55
2023-05-10T02:51:19.197Z,25.50
2023-05-10T02:51:49.597Z,25.47
2023-05-10T02:52:20.020Z,25.54
2023-05-10T02:52:50.442Z,25.57
2023-05-10T02:53:20.865Z,25.60
2023-05-10T02:53:51.284Z,25.61
2023-05-10T02:54:21.715Z,25.59
2023-05-10T02:54:52.131Z,25.59
2023-05-10T02:55:22.573Z,25.62
2023-05-10T02:55:52.991Z,25.61
2023-05-10T02:56:23.415Z,25.59
2023-05-10T02:56:53.855Z,25.60
2023-05-10T02:57:24.266Z,25.59
2023-05-10T02:57:54.682Z,25.60
2023-05-10T02:58:25.107Z,25.62
2023-05-10T02:58:55.529Z,25.61
2023-05-10T02:59:25.949Z,25.58
2023-05-10T02:59:56.390Z,25.59
2023-05-10T03:00:26.815Z,25.60
2023-05-10T03:00:57.244Z,25.60
2023-05-10T03:01:27.739Z,25.60
2023-05-10T03:01:58.145Z,25.62
2023-05-10T03:02:28.561Z,25.61
2023-05-10T03:02:59.006Z,25.57
2023-05-10T03:03:29.401Z,25.56
2023-05-10T03:03:59.821Z,25.56
2023-05-10T03:04:30.298Z,25.55
2023-05-10T03:05:00.806Z,25.60
2023-05-10T03:05:31.187Z,25.65
2023-05-10T03:06:01.613Z,25.65
2023-05-10T03:06:32.032Z,25.60
2023-05-10T03:07:02.478Z,25.57
2023-05-10T03:07:32.902Z,25.57
2023-05-10T03:08:03.333Z,25.58
2023-05-10T03:08:33.757Z,25.57
2023-05-10T03:09:04.190Z,25.59
2023-05-10T03:09:34.627Z,25.60
2023-05-10T03:10:05.067Z,25.58
2023-05-10T03:10:35.483Z,25.58
2023-05-10T03:11:05.914Z,25.60
2023-05-10T03:11:36.340Z,25.63
2023-05-10T03:12:06.781Z,25.63
2023-05-10T03:12:37.190Z,25.61
2023-05-10T03:13:07.686Z,25.62
2023-05-10T03:13:38.065Z,25.63
2023-05-10T03:14:08.492Z,25.57
2023-05-10T03:14:38.953Z,25.54
2023-05-10T03:15:09.427Z,25.52
2023-05-10T03:15:39.880Z,25.55
2023-05-10T03:16:10.404Z,25.55
2023-05-10T03:16:41.642Z,25.53
2023-05-10T03:17:13.743Z,25.50
2023-05-10T03:17:44.208Z,25.48
2023-05-10T03:18:14.604Z,25.48
2023-05-10T03:18:45.022Z,25.49
2023-05-10T03:19:15.469Z,25.47
2023-05-10T03:19:45.898Z,25.47
2023-05-10T03:20:16.654Z,25.46
2023-05-10T03:20:47.194Z,25.44
2023-05-10T03:21:17.615Z,25.42
2023-05-10T03:21:48.046Z,25.44
2023-05-10T03:22:18.470Z,25.47
2023-05-10T03:22:48.892Z,25.49
2023-05-10T03:23:19.318Z,25.47
2023-05-10T03:23:49.737Z,25.48
2023-05-10T03:24:20.187Z,25.47
2023-05-10T03:24:50.600Z,25.49
2023-05-10T03:25:21.033Z,25.54
2023-05-10T03:25:51.462Z,25.50
2023-05-10T03:26:21.881Z,25.52
2023-05-10T03:26:52.312Z,25.57
2023-05-10T03:27:22.752Z,25.57
2023-05-10T03:27:53.157Z,25.54
2023-05-10T03:28:23.586Z,25.54
2023-05-10T03:28:54.019Z,25.56
2023-05-10T03:29:24.445Z,25.56
2023-05-10T03:29:54.866Z,25.53
2023-05-10T03:30:25.295Z,25.50
2023-05-10T03:30:55.714Z,25.51
2023-05-10T03:31:26.166Z,25.57
2023-05-10T03:31:56.645Z,25.58
2023-05-10T03:32:27.074Z,25.56
2023-05-10T03:32:57.516Z,25.52
2023-05-10T03:33:27.922Z,25.49
2023-05-10T03:33:58.366Z,25.49
2023-05-10T03:34:28.794Z,25.49
2023-05-10T03:34:59.215Z,25.54
2023-05-10T03:35:29.635Z,25.52
2023-05-10T03:36:00.061Z,25.55
2023-05-10T03:36:30.482Z,25.59
2023-05-10T03:37:00.899Z,25.61
2023-05-10T03:37:31.346Z,25.59
2023-05-10T03:38:01.754Z,25.56
2023-05-10T03:38:32.184Z,25.52
2023-05-10T03:39:02.618Z,25.49
2023-05-10T03:39:33.034Z,25.51
2023-05-10T03:40:03.480Z,25.52
2023-05-10T03:40:33.879Z,25.50
2023-05-10T03:41:04.309Z,25.53
2023-05-10T03:41:34.727Z,25.58
2023-05-10T03:42:05.160Z,25.63
2023-05-10T03:42:35.607Z,25.64
2023-05-10T03:43:06.013Z,25.64
2023-05-10T03:43:36.476Z,25.65
2023-05-10T03:44:06.882Z,25.64
2023-05-10T03:44:37.329Z,25.62
2023-05-10T03:45:07.742Z,25.55
2023-05-10T03:45:38.169Z,25.52
2023-05-10T03:46:08.864Z,25.47
2023-05-10T03:46:39.343Z,25.45
2023-05-10T03:47:09.758Z,25.45
2023-05-10T03:47:40.248Z,25.45
2023-05-10T03:48:10.697Z,25.45
2023-05-10T03:48:41.111Z,25.45
2023-05-10T03:49:11.537Z,25.43
2023-05-10T03:49:41.983Z,25.43
2023-05-10T03:50:12.423Z,25.43
2023-05-10T03:50:42.840Z,25.46
2023-05-10T03:51:13.270Z,25.46
2023-05-10T03:51:43.682Z,25.48
2023-05-10T03:52:14.103Z,25.56
2023-05-10T03:52:44.530Z,25.58
2023-05-10T03:53:14.987Z,25.56
2023-05-10T03:53:45.396Z,25.52
2023-05-10T03:54:15.838Z,25.48
2023-05-10T03:54:46.255Z,25.49
2023-05-10T03:55:16.693Z,25.54
2023-05-10T03:55:47.096Z,25.56
2023-05-10T03:56:17.530Z,25.53
2023-05-10T03:56:47.940Z,25.49
2023-05-10T03:57:18.369Z,25.47
2023-05-10T03:57:48.814Z,25.48
2023-05-10T03:58:19.228Z,25.47
2023-05-10T03:58:49.663Z,25.49
2023-05-10T03:59:20.088Z,25.48
2023-05-10T03:59:50.512Z,25.47
2023-05-10T04:00:20.925Z,25.45
2023-05-10T04:00:51.358Z,25.48
2023-05-10T04:01:21.806Z,25.49
2023-05-10T04:01:52.244Z,25.49
2023-05-10T04:02:22.687Z,25.47
2023-05-10T04:02:53.272Z,25.47
2023-05-10T04:03:23.794Z,25.50
2023-05-10T04:03:54.384Z,25.54
2023-05-10T04:04:24.793Z,25.55
2023-05-10T04:04:55.209Z,25.53
2023-05-10T04:05:25.631Z,25.54
2023-05-10T04:05:56.097Z,25.56
2023-05-10T04:06:26.547Z,25.56
2023-05-10T04:06:57.022Z,25.55
2023-05-10T04:07:27.451Z,25.50
2023-05-10T04:07:57.878Z,25.46
2023-05-10T04:08:28.312Z,25.47
2023-05-10T04:08:58.725Z,25.49
2023-05-10T04:09:29.147Z,25.47
2023-05-10T04:09:59.582Z,25.48
2023-05-10T04:10:29.997Z,25.49
2023-05-10T04:11:00.412Z,25.50
2023-05-10T04:11:30.846Z,25.52
2023-05-10T04:12:01.266Z,25.49
2023-05-10T04:12:31.697Z,25.54
2023-05-10T04:13:02.279Z,25.52
2023-05-10T04:13:32.676Z,25.49
2023-05-10T04:14:03.112Z,25.47
2023-05-10T04:14:33.513Z,25.48
2023-05-10T04:15:03.953Z,25.49
2023-05-10T04:15:34.375Z,25.49
2023-05-10T04:16:04.817Z,25.50
2023-05-10T04:16:35.245Z,25.45
2023-05-10T04:17:05.723Z,25.43
2023-05-10T04:17:36.133Z,25.43
2023-05-10T04:18:08.708Z,25.47
2023-05-10T04:18:39.317Z,25.47
2023-05-10T04:19:09.754Z,25.45
2023-05-10T04:19:40.171Z,25.46
2023-05-10T04:20:10.642Z,25.54
2023-05-10T04:20:41.023Z,25.54
2023-05-10T04:21:11.441Z,25.49
2023-05-10T04:21:41.883Z,25.48
2023-05-10T04:22:12.321Z,25.54
2023-05-10T04:22:42.744Z,25.50
2023-05-10T04:23:13.161Z,25.49
2023-05-10T04:23:43.581Z,25.46
2023-05-10T04:24:14.021Z,25.45
2023-05-10T04:24:44.436Z,25.46
2023-05-10T04:25:14.858Z,25.46
2023-05-10T04:25:45.281Z,25.44
2023-05-10T04:26:15.712Z,25.44
2023-05-10T04:26:46.150Z,25.45
2023-05-10T04:27:16.573Z,25.48
2023-05-10T04:27:46.990Z,25.50
2023-05-10T04:28:17.434Z,25.48
2023-05-10T04:28:47.858Z,25.46
2023-05-10T04:29:18.260Z,25.43
2023-05-10T04:29:48.686Z,25.41
2023-05-10T04:30:19.223Z,25.41
2023-05-10T04:30:49.657Z,25.42
2023-05-10T04:31:20.233Z,25.41
2023-05-10T04:31:50.680Z,25.41
2023-05-10T04:32:21.250Z,25.44
2023-05-10T04:32:51.799Z,25.43
2023-05-10T04:33:22.196Z,25.42
2023-05-10T04:33:52.613Z,25.44
2023-05-10T04:34:23.038Z,25.44
2023-05-10T04:34:53.467Z,25.46
2023-05-10T04:35:23.897Z,25.43
2023-05-10T04:35:54.317Z,25.44
2023-05-10T04:36:24.768Z,25.46
2023-05-10T04:36:55.210Z,25.48
2023-05-10T04:37:25.639Z,25.48
2023-05-10T04:37:56.057Z,25.49
2023-05-10T04:38:26.480Z,25.49
2023-05-10T04:38:56.900Z,25.55
2023-05-10T04:39:27.321Z,25.57
2023-05-10T04:39:57.750Z,25.54
2023-05-10T04:40:28.189Z,25.55
2023-05-10T04:40:58.635Z,25.54
2023-05-10T04:41:29.071Z,25.51
2023-05-10T04:41:59.486Z,25.49
2023-05-10T04:42:29.917Z,25.52
2023-05-10T04:43:00.346Z,25.55
2023-05-10T04:43:30.792Z,25.52
2023-05-10T04:44:01.214Z,25.52
2023-05-10T04:44:31.641Z,25.52
2023-05-10T04:45:02.064Z,25.51
2023-05-10T04:45:32.475Z,25.51
2023-05-10T04:46:02.945Z,25.51
2023-05-10T04:46:33.420Z,25.54
2023-05-10T04:47:03.807Z,25.55
2023-05-10T04:47:34.251Z,25.55
2023-05-10T04:48:04.745Z,25.55
2023-05-10T04:48:35.151Z,25.56
2023-05-10T04:49:05.581Z,25.56
2023-05-10T04:49:36.000Z,25.54
2023-05-10T04:50:06.443Z,25.55
2023-05-10T04:50:36.863Z,25.53
2023-05-10T04:51:07.305Z,25.54
2023-05-10T04:51:37.721Z,25.52
2023-05-10T04:52:08.145Z,25.48
2023-05-10T04:52:38.574Z,25.47
2023-05-10T04:53:09.001Z,25.44
2023-05-10T04:53:39.427Z,25.45
2023-05-10T04:54:09.860Z,25.48
2023-05-10T04:54:40.269Z,25.45
2023-05-10T04:55:10.685Z,25.45
2023-05-10T04:55:41.134Z,25.46
2023-05-10T04:56:11.554Z,25.47
2023-05-10T04:56:41.987Z,25.47
2023-05-10T04:57:12.450Z,25.46
2023-05-10T04:57:42.876Z,25.47
2023-05-10T04:58:13.297Z,25.46
2023-05-10T04:58:43.770Z,25.45
2023-05-10T04:59:14.148Z,25.46
2023-05-10T04:59:44.587Z,25.46
2023-05-10T05:00:15.283Z,25.46
2023-05-10T05:00:45.923Z,25.47
2023-05-10T05:01:16.368Z,25.48
2023-05-10T05:01:46.791Z,25.46
2023-05-10T05:02:17.198Z,25.49
2023-05-10T05:02:47.688Z,25.48
2023-05-10T05:03:18.263Z,25.49
2023-05-10T05:03:48.841Z,25.49
2023-05-10T05:04:19.322Z,25.49
2023-05-10T05:04:49.738Z,25.47
2023-05-10T05:05:20.166Z,25.47
2023-05-10T05:05:50.590Z,25.50
2023-05-10T05:06:21.008Z,25.53
2023-05-10T05:06:53.734Z,25.54
2023-05-10T05:07:24.395Z,25.52
2023-05-10T05:07:54.819Z,25.50
2023-05-10T05:08:25.244Z,25.52
2023-05-10T05:08:55.683Z,25.56
2023-05-10T05:09:26.106Z,25.56
2023-05-10T05:09:56.590Z,25.56
2023-05-10T05:10:27.014Z,25.55
2023-05-10T05:10:57.437Z,25.55
2023-05-10T05:11:27.860Z,25.55
2023-05-10T05:11:58.312Z,25.56
2023-05-10T05:12:28.744Z,25.57
2023-05-10T05:12:59.209Z,25.56
2023-05-10T05:13:29.701Z,25.56
2023-05-10T05:14:00.309Z,25.57
2023-05-10T05:14:30.761Z,25.54
2023-05-10T05:15:01.194Z,25.56
2023-05-10T05:15:31.633Z,25.56
2023-05-10T05:16:02.075Z,25.56
2023-05-10T05:16:32.497Z,25.56
2023-05-10T05:17:02.944Z,25.58
2023-05-10T05:17:33.414Z,25.57
2023-05-10T05:18:03.880Z,25.57
2023-05-10T05:18:34.272Z,25.58
2023-05-10T05:19:04.697Z,25.60
2023-05-10T05:19:35.122Z,25.59
2023-05-10T05:20:05.554Z,25.60
2023-05-10T05:20:35.975Z,25.60
2023-05-10T05:21:06.399Z,25.59
2023-05-10T05:21:36.819Z,25.60
2023-05-10T05:22:07.242Z,25.60
2023-05-10T05:22:37.687Z,25.61
2023-05-10T05:23:08.100Z,25.60
2023-05-10T05:23:38.533Z,25.59
2023-05-10T05:24:08.960Z,25.58
2023-05-10T05:24:39.447Z,25.59
2023-05-10T05:25:09.869Z,25.58
2023-05-10T05:25:40.297Z,25.58
2023-05-10T05:26:10.723Z,25.57
2023-05-10T05:26:41.141Z,25.57
2023-05-10T05:27:11.564Z,25.57
2023-05-10T05:27:42.002Z,25.59
2023-05-10T05:28:12.417Z,25.60
2023-05-10T05:28:42.851Z,25.61
2023-05-10T05:29:13.282Z,25.61
2023-05-10T05:29:43.708Z,25.61
2023-05-10T05:30:14.272Z,25.60
2023-05-10T05:30:44.704Z,25.62
2023-05-10T05:31:15.169Z,25.63
2023-05-10T05:31:45.594Z,25.63
2023-05-10T05:32:16.053Z,25.64
2023-05-10T05:32:46.529Z,25.65
2023-05-10T05:33:16.911Z,25.67
2023-05-10T05:33:47.336Z,25.68
2023-05-10T05:34:17.778Z,25.68
2023-05-10T05:34:48.219Z,25.67
2023-05-10T05:35:18.812Z,25.67
2023-05-10T05:35:49.312Z,25.66
2023-05-10T05:36:19.741Z,25.65
2023-05-10T05:36:50.180Z,25.66
2023-05-10T05:37:20.600Z,25.65
2023-05-10T05:37:51.020Z,25.64
2023-05-10T05:38:21.442Z,25.64
2023-05-10T05:38:51.867Z,25.66
2023-05-10T05:39:22.341Z,25.66
2023-05-10T05:39:52.775Z,25.67
2023-05-10T05:40:23.202Z,25.69
2023-05-10T05:40:53.625Z,25.69
2023-05-10T05:41:24.056Z,25.66
2023-05-10T05:41:54.497Z,25.66
2023-05-10T05:42:24.912Z,25.69
2023-05-10T05:42:55.349Z,25.68
2023-05-10T05:43:25.785Z,25.67
2023-05-10T05:43:56.204Z,25.68
2023-05-10T05:44:26.639Z,25.69
2023-05-10T05:44:57.046Z,25.68
2023-05-10T05:45:27.471Z,25.68
2023-05-10T05:45:57.927Z,25.69
2023-05-10T05:46:28.379Z,25.71
2023-05-10T05:46:58.766Z,25.70
2023-05-10T05:47:29.234Z,25.70
2023-05-10T05:47:59.801Z,25.72
2023-05-10T05:48:30.240Z,25.72
2023-05-10T05:49:00.673Z,25.72
2023-05-10T05:49:31.097Z,25.73
2023-05-10T05:50:01.528Z,25.77
2023-05-10T05:50:31.953Z,25.77
2023-05-10T05:51:02.385Z,25.74
2023-05-10T05:51:32.797Z,25.73
2023-05-10T05:52:03.226Z,25.73
2023-05-10T05:52:33.654Z,25.74
2023-05-10T05:53:04.075Z,25.77
2023-05-10T05:53:34.508Z,25.74
2023-05-10T05:54:04.931Z,25.74
2023-05-10T05:54:35.356Z,25.77
2023-05-10T05:55:05.807Z,25.77
2023-05-10T05:55:36.214Z,25.79
2023-05-10T05:56:06.628Z,25.76
2023-05-10T05:56:37.050Z,25.76
2023-05-10T05:57:07.478Z,25.78
2023-05-10T05:57:37.917Z,25.79
2023-05-10T05:58:08.997Z,25.76
2023-05-10T05:58:39.438Z,25.77
2023-05-10T05:59:09.854Z,25.79
2023-05-10T05:59:40.291Z,25.79
2023-05-10T06:00:10.701Z,25.81
2023-05-10T06:00:41.153Z,25.82
2023-05-10T06:01:11.553Z,25.81
2023-05-10T06:01:42.024Z,25.83
2023-05-10T06:02:12.496Z,25.82
2023-05-10T06:02:43.100Z,25.84
2023-05-10T06:03:13.684Z,25.88
2023-05-10T06:03:44.173Z,25.88
2023-05-10T06:04:14.580Z,25.87
2023-05-10T06:04:44.996Z,25.85
2023-05-10T06:05:15.665Z,25.86
2023-05-10T06:05:46.241Z,25.88
2023-05-10T06:06:16.666Z,25.89
2023-05-10T06:06:47.092Z,25.88
2023-05-10T06:07:17.533Z,25.89
2023-05-10T06:07:47.965Z,25.93
2023-05-10T06:08:18.450Z,25.96
2023-05-10T06:08:48.863Z,25.92
2023-05-10T06:09:19.282Z,25.93
2023-05-10T06:09:49.750Z,25.92
2023-05-10T06:10:20.158Z,25.93
2023-05-10T06:10:50.579Z,25.91
2023-05-10T06:11:21.007Z,25.91
2023-05-10T06:11:51.454Z,25.91
2023-05-10T06:12:21.910Z,25.90
2023-05-10T06:12:52.393Z,25.94
2023-05-10T06:13:22.822Z,25.95
2023-05-10T06:13:53.213Z,25.95
2023-05-10T06:14:23.633Z,25.95
2023-05-10T06:14:54.080Z,25.92
2023-05-10T06:15:24.477Z,25.96
2023-05-10T06:15:54.899Z,25.95
2023-05-10T06:16:25.363Z,25.93
2023-05-10T06:16:56.008Z,25.92
2023-05-10T06:17:26.488Z,25.90
2023-05-10T06:17:56.921Z,25.92
2023-05-10T06:18:27.341Z,25.90
2023-05-10T06:18:57.791Z,25.93
2023-05-10T06:19:28.229Z,25.92
2023-05-10T06:19:58.655Z,25.95
2023-05-10T06:20:29.068Z,25.97
2023-05-10T06:20:59.497Z,25.97
2023-05-10T06:21:29.925Z,25.96
2023-05-10T06:22:00.364Z,25.95
2023-05-10T06:22:30.794Z,25.96
2023-05-10T06:23:01.225Z,25.97
2023-05-10T06:23:31.647Z,25.96
2023-05-10T06:24:02.079Z,25.98
2023-05-10T06:24:32.506Z,26.01
2023-05-10T06:25:02.939Z,26.00
2023-05-10T06:25:33.356Z,25.99
2023-05-10T06:26:03.783Z,26.00
2023-05-10T06:26:34.201Z,25.99
2023-05-10T06:27:04.682Z,25.99
2023-05-10T06:27:35.124Z,26.01
2023-05-10T06:28:05.553Z,26.00
2023-05-10T06:28:35.965Z,26.02
2023-05-10T06:29:06.388Z,25.81
2023-05-10T06:29:36.826Z,24.51
2023-05-10T06:30:12.963Z,24.21
2023-05-10T06:30:42.575Z,24.32
2023-05-10T06:31:13.060Z,24.50
2023-05-10T06:31:43.504Z,24.74
2023-05-10T06:32:13.963Z,24.97